Pagrindinis puslapis
METAR-TAF:

METAR-TAF

Oro uostai :

Bahreino tarptautinis oro uostas

Bahreinas, Bahreinas

platuma: 26-16N, ilguma: 050-39E, Aukštis: 2 m

Dabartinis oras

Ataskaita buvo paskelbta 36 minutes, ne 01:00 UTC
Vėjas 7 kt iš Šiaurės/Šiaurės Vakarų
Temperatūra 19°C
Drėgmė 52%
Slėgis 1014 hPa
Matomumas 10 km arba daugiau
nėra debesų žemiau 1500 m ir nėra kamuolinių lietaus debesų

METAR: OBBI 270100Z 34007KT CAVOK 19/09 Q1014 NOSIG

Laikas: 04:36 (01:36 UTC)

Prognozė

Ataskaita buvo paskelbta 2 valandos ir 36 minutes, ne 23:00 UTC
Prognozė galioja nuo 27 metu 00 UTC su 28 metu 06 UTC
Vėjas 8 kt iš Šiaurės
Matomumas 10 km arba daugiau
nėra debesų žemiau 1500 m ir nėra kamuolinių lietaus debesų

TAF: OBBI 262300Z 2700/2806 36008KT CAVOK

Orai ataskaitas ir orų prognozės (METAR, TAF).

turimą stotys yra geltonos ir raudonos taškus žemėlapyje.

Perkelti pele per norėdami pamatyti stoties vardą.

Tada spustelėkite, norėdami matyti oro stebėjimo ir prognozės.

Norėdami pakeisti žemėlapį: spustelėkite ant žalios mygtukų su juodo kryžiaus žemyn,; žalią mygtuką su brūkšneliu, jei norite nutolinti; arba žalių rodyklių gretimoms žemėlapius.


METAR-TAF: